createdAt,value
2023-05-01T00:00:11.752Z,10.10
2023-05-01T00:05:34.656Z,10.60
2023-05-01T00:10:37.982Z,11.20
2023-05-01T00:15:42.359Z,11.70
2023-05-01T00:20:45.253Z,11.30
2023-05-01T00:25:48.033Z,11.60
2023-05-01T00:30:50.877Z,10.60
2023-05-01T00:35:53.688Z,10.60
2023-05-01T00:40:56.460Z,12.20
2023-05-01T00:45:59.520Z,11.30
2023-05-01T00:51:06.127Z,11.80
2023-05-01T00:56:11.165Z,11.50
2023-05-01T01:01:14.142Z,7.80
2023-05-01T01:06:56.106Z,6.90
2023-05-01T01:12:06.752Z,6.50
2023-05-01T01:17:45.626Z,6.60
2023-05-01T01:23:01.921Z,7.00
2023-05-01T01:28:30.977Z,5.90
2023-05-01T01:33:56.404Z,7.20
2023-05-01T01:39:14.979Z,7.00
2023-05-01T01:44:27.954Z,6.80
2023-05-01T01:49:32.073Z,7.00
2023-05-01T01:54:42.457Z,7.70
2023-05-01T01:59:47.457Z,7.10
2023-05-01T02:04:52.514Z,7.50
2023-05-01T02:09:57.377Z,7.80
2023-05-01T02:15:01.957Z,7.80
2023-05-01T02:20:06.501Z,7.50
2023-05-01T02:25:12.048Z,6.60
2023-05-01T02:30:15.187Z,8.10
2023-05-01T02:35:18.328Z,7.50
2023-05-01T02:40:22.153Z,9.00
2023-05-01T02:45:26.085Z,7.70
2023-05-01T02:50:29.831Z,8.30
2023-05-01T02:55:33.633Z,8.40
2023-05-01T03:00:36.837Z,9.00
2023-05-01T03:05:40.260Z,8.60
2023-05-01T03:10:43.437Z,9.50
2023-05-01T03:15:46.677Z,9.50
2023-05-01T03:20:57.275Z,9.00
2023-05-01T03:26:00.026Z,9.40
2023-05-01T03:31:02.880Z,9.30
2023-05-01T03:36:06.179Z,9.40
2023-05-01T03:41:10.106Z,8.20
2023-05-01T03:46:13.455Z,8.50
2023-05-01T03:51:17.376Z,8.00
2023-05-01T03:56:20.216Z,8.50
2023-05-01T04:01:23.054Z,8.00
2023-05-01T04:06:26.409Z,8.70
2023-05-01T04:11:29.195Z,8.10
2023-05-01T04:16:32.228Z,7.10
2023-05-01T04:21:35.228Z,6.50
2023-05-01T04:26:39.153Z,6.40
2023-05-01T04:31:43.429Z,6.30
2023-05-01T04:36:46.327Z,6.20
2023-05-01T04:41:49.199Z,5.90
2023-05-01T04:46:54.380Z,6.40
2023-05-01T04:51:57.194Z,4.70
2023-05-01T04:56:59.889Z,5.30
2023-05-01T05:02:02.809Z,5.10
2023-05-01T05:07:05.957Z,4.50
2023-05-01T05:12:08.759Z,4.60
2023-05-01T05:17:11.644Z,4.30
2023-05-01T05:22:14.497Z,4.30
2023-05-01T05:27:17.721Z,3.80
2023-05-01T05:32:20.639Z,4.20
2023-05-01T05:37:25.571Z,4.00
2023-05-01T05:42:28.401Z,3.80
2023-05-01T05:47:31.185Z,3.50
2023-05-01T05:52:33.943Z,3.30
2023-05-01T05:57:37.938Z,4.10
2023-05-01T06:02:40.848Z,3.40
2023-05-01T06:07:43.733Z,3.70
2023-05-01T06:12:55.071Z,3.60
2023-05-01T06:18:01.404Z,3.40
2023-05-01T06:23:04.374Z,3.60
2023-05-01T06:28:07.334Z,3.60
2023-05-01T06:33:10.840Z,3.00
2023-05-01T06:38:13.692Z,3.60
2023-05-01T06:43:16.471Z,3.40
2023-05-01T06:48:19.293Z,3.20
2023-05-01T06:53:22.059Z,3.50
2023-05-01T06:58:24.844Z,3.10
2023-05-01T07:03:27.807Z,2.80
2023-05-01T07:08:30.896Z,3.10
2023-05-01T07:13:34.035Z,2.80
2023-05-01T07:18:38.368Z,3.10
2023-05-01T07:23:41.367Z,2.80
2023-05-01T07:28:44.112Z,3.40
2023-05-01T07:33:47.707Z,3.10
2023-05-01T07:38:50.683Z,3.20
2023-05-01T07:43:54.082Z,3.20
2023-05-01T07:48:56.893Z,3.80
2023-05-01T07:54:04.737Z,3.20
2023-05-01T07:59:07.793Z,3.30
2023-05-01T08:04:11.087Z,3.70
2023-05-01T08:09:18.065Z,3.20
2023-05-01T08:14:20.872Z,3.50
2023-05-01T08:19:24.522Z,3.10
2023-05-01T08:24:27.656Z,3.40
2023-05-01T08:29:30.833Z,3.10
2023-05-01T08:34:34.524Z,3.50
2023-05-01T08:39:37.998Z,3.10
2023-05-01T08:44:41.267Z,3.60
2023-05-01T08:49:46.881Z,3.20
2023-05-01T08:54:54.602Z,3.40
2023-05-01T08:59:59.060Z,3.10
2023-05-01T09:05:05.340Z,3.80
2023-05-01T09:10:08.389Z,3.80
2023-05-01T09:15:11.816Z,3.00
2023-05-01T09:20:14.931Z,3.30
2023-05-01T09:25:20.780Z,3.40
2023-05-01T09:35:52.444Z,3.10
2023-05-01T09:41:03.437Z,3.70
2023-05-01T09:46:12.954Z,3.10
2023-05-01T09:51:33.153Z,3.00
2023-05-01T09:56:47.969Z,3.40
2023-05-01T10:01:51.736Z,2.70
2023-05-01T10:06:55.020Z,3.00
2023-05-01T10:11:59.302Z,2.60
2023-05-01T10:17:19.402Z,2.90
2023-05-01T10:22:24.821Z,2.90
2023-05-01T10:27:31.422Z,2.80
2023-05-01T10:32:37.672Z,2.90
2023-05-01T10:43:31.199Z,3.10
2023-05-01T10:48:44.481Z,2.40
2023-05-01T10:53:51.566Z,2.90
2023-05-01T10:59:00.183Z,2.60
2023-05-01T11:04:25.286Z,3.30
2023-05-01T11:09:42.751Z,2.80
2023-05-01T11:14:54.706Z,3.00
2023-05-01T11:19:58.856Z,3.20
2023-05-01T11:25:06.105Z,2.90
2023-05-01T11:30:09.981Z,2.80
2023-05-01T11:35:32.678Z,2.50
2023-05-01T11:40:36.164Z,3.60
2023-05-01T11:45:39.327Z,2.60
2023-05-01T11:50:44.196Z,3.80
2023-05-01T11:55:47.175Z,3.00
2023-05-01T12:00:52.284Z,2.80
2023-05-01T12:05:55.210Z,2.80
2023-05-01T12:10:58.670Z,2.70
2023-05-01T12:16:03.424Z,3.10
2023-05-01T12:21:16.859Z,2.80
2023-05-01T12:26:25.945Z,1.90
2023-05-01T12:31:30.205Z,2.50
2023-05-01T12:36:35.805Z,2.70
2023-05-01T12:41:39.795Z,2.60
2023-05-01T12:46:43.626Z,2.40
2023-05-01T12:51:51.986Z,2.40
2023-05-01T12:57:06.685Z,2.50
2023-05-01T13:02:12.547Z,3.40
2023-05-01T13:07:18.012Z,2.80
2023-05-01T13:12:21.093Z,2.60
2023-05-01T13:17:30.991Z,3.10
2023-05-01T13:22:41.962Z,2.60
2023-05-01T13:27:52.648Z,2.80
2023-05-01T13:32:55.534Z,3.50
2023-05-01T13:38:01.357Z,2.50
2023-05-01T13:43:04.097Z,2.90
2023-05-01T13:48:06.911Z,2.70
2023-05-01T13:53:11.407Z,2.40
2023-05-01T13:58:14.348Z,2.90
2023-05-01T14:03:18.977Z,2.90
2023-05-01T14:08:27.881Z,2.70
2023-05-01T14:13:31.292Z,2.20
2023-05-01T14:18:35.336Z,2.40
2023-05-01T14:23:42.285Z,3.00
2023-05-01T14:28:48.204Z,3.00
2023-05-01T14:33:56.677Z,2.70
2023-05-01T14:39:01.100Z,3.60
2023-05-01T14:44:06.056Z,2.80
2023-05-01T14:49:11.785Z,1.80
2023-05-01T14:54:15.402Z,2.20
2023-05-01T14:59:19.453Z,2.40
2023-05-01T15:04:24.904Z,2.30
2023-05-01T15:09:27.764Z,2.70
2023-05-01T15:14:30.629Z,4.50
2023-05-01T15:19:33.635Z,2.60
2023-05-01T15:24:36.738Z,2.90
2023-05-01T15:29:39.768Z,2.40
2023-05-01T15:34:43.357Z,3.20
2023-05-01T15:39:46.244Z,4.10
2023-05-01T15:44:49.118Z,4.20
2023-05-01T15:49:51.896Z,5.60
2023-05-01T15:54:56.445Z,4.00
2023-05-01T15:59:59.535Z,3.10
2023-05-01T16:05:03.889Z,3.80
2023-05-01T16:10:09.948Z,3.10
2023-05-01T16:15:15.221Z,3.20
2023-05-01T16:20:18.228Z,12.90
2023-05-01T16:25:22.209Z,4.10
2023-05-01T16:30:28.252Z,3.20
2023-05-01T16:35:31.941Z,2.80
2023-05-01T16:40:37.255Z,3.40
2023-05-01T16:45:40.537Z,2.40
2023-05-01T16:50:43.358Z,2.70
2023-05-01T16:55:46.427Z,5.90
2023-05-01T17:00:49.210Z,9.00
2023-05-01T17:05:52.225Z,8.40
2023-05-01T17:10:55.187Z,23.10
2023-05-01T17:15:58.669Z,9.50
2023-05-01T17:21:01.836Z,11.90
2023-05-01T17:26:05.499Z,13.10
2023-05-01T17:31:08.748Z,10.10
2023-05-01T17:36:11.942Z,7.70
2023-05-01T17:41:18.045Z,7.60
2023-05-01T17:46:21.022Z,5.30
2023-05-01T17:51:26.568Z,4.80
2023-05-01T17:56:30.910Z,7.70
2023-05-01T18:01:33.854Z,6.70
2023-05-01T18:06:37.452Z,7.30
2023-05-01T18:11:43.065Z,6.00
2023-05-01T18:16:46.696Z,6.50
2023-05-01T18:21:49.572Z,7.40
2023-05-01T18:26:52.346Z,7.90
2023-05-01T18:31:55.737Z,10.00
2023-05-01T18:36:58.621Z,6.50
2023-05-01T18:42:03.638Z,6.20
2023-05-01T18:47:07.008Z,9.40
2023-05-01T18:52:09.825Z,8.90
2023-05-01T18:57:12.659Z,8.40
2023-05-01T19:02:15.702Z,7.70
2023-05-01T19:07:20.209Z,9.70
2023-05-01T19:12:23.268Z,11.60
2023-05-01T19:17:26.202Z,12.70
2023-05-01T19:22:30.338Z,15.70
2023-05-01T19:27:33.554Z,22.40
2023-05-01T19:32:36.868Z,13.90
2023-05-01T19:37:39.972Z,17.90
2023-05-01T19:42:44.844Z,16.30
2023-05-01T19:47:47.697Z,12.70
2023-05-01T19:52:51.223Z,15.80
2023-05-01T19:57:54.080Z,13.90
2023-05-01T20:02:56.938Z,9.50
2023-05-01T20:08:02.427Z,8.40
2023-05-01T20:13:10.806Z,8.10
2023-05-01T20:18:16.922Z,7.10
2023-05-01T20:23:23.241Z,6.00
2023-05-01T20:28:27.221Z,6.50
2023-05-01T20:33:30.316Z,8.10
2023-05-01T20:38:33.187Z,7.20
2023-05-01T20:43:36.406Z,6.20
2023-05-01T20:48:39.183Z,5.10
2023-05-01T20:53:41.928Z,5.50
2023-05-01T20:58:45.308Z,5.20
2023-05-01T21:03:48.178Z,5.20
2023-05-01T21:08:51.669Z,6.50
2023-05-01T21:13:56.072Z,7.00
2023-05-01T21:18:58.849Z,7.00
2023-05-01T21:24:01.688Z,7.10
2023-05-01T21:29:04.574Z,6.70
2023-05-01T21:34:08.938Z,5.50
2023-05-01T21:39:14.646Z,6.50
2023-05-01T21:44:17.922Z,7.70
2023-05-01T21:49:23.244Z,5.30
2023-05-01T21:54:29.428Z,4.80
2023-05-01T21:59:36.257Z,5.10
2023-05-01T22:04:39.842Z,4.90
2023-05-01T22:09:43.050Z,4.70
2023-05-01T22:14:47.697Z,5.20
2023-05-01T22:19:51.721Z,5.30
2023-05-01T22:24:54.716Z,4.80
2023-05-01T22:29:58.484Z,4.80
2023-05-01T22:35:01.624Z,4.50
2023-05-01T22:40:06.876Z,4.40
2023-05-01T22:45:10.585Z,4.90
2023-05-01T22:50:13.526Z,5.10
2023-05-01T22:55:16.625Z,4.30
2023-05-01T23:00:19.804Z,4.40
2023-05-01T23:05:22.630Z,4.10
2023-05-01T23:10:27.512Z,3.60
2023-05-01T23:15:30.364Z,3.70
2023-05-01T23:20:39.977Z,4.10
2023-05-01T23:25:48.915Z,3.70
2023-05-01T23:31:00.366Z,4.10
2023-05-01T23:36:04.006Z,4.30
2023-05-01T23:41:10.111Z,3.40
2023-05-01T23:46:13.038Z,3.70
2023-05-01T23:51:15.881Z,3.90
2023-05-01T23:56:18.739Z,4.30
